Time,TemperatureF,DewpointF,PressureIn,WindDirection,WindDirectionDegrees,WindSpeedMPH,WindSpeedGustMPH,Humidity,HourlyPrecipIn,Conditions,Clouds,dailyrainin,SoftwareType,DateUTC
2013-05-23 00:01:00,70.9,68.8,29.91,SW,225,2.2,2.2,93,0.00,,CLR,0.00,VWS V14.01,2013-05-23 04:01:00,
2013-05-23 00:02:00,70.9,68.8,29.91,SW,225,0.0,1.8,93,0.00,,CLR,0.00,VWS V14.01,2013-05-23 04:02:00,
2013-05-23 00:07:00,70.9,68.8,29.88,SW,225,0.0,0.0,93,0.00,,CLR,0.00,VWS V14.01,2013-05-23 04:07:00,
2013-05-23 00:12:00,70.9,68.4,29.88,SW,225,0.0,0.0,92,0.00,,CLR,0.00,VWS V14.01,2013-05-23 04:12:00,
2013-05-23 00:17:00,70.7,68.3,29.88,NW,315,0.0,0.0,92,0.00,,CLR,0.00,VWS V14.01,2013-05-23 04:17:00,
2013-05-23 00:22:00,70.5,66.1,29.88,SW,225,0.0,3.1,86,0.00,,CLR,0.00,VWS V14.01,2013-05-23 04:22:00,
2013-05-23 00:27:00,70.7,62.4,29.88,SW,225,3.1,3.1,75,0.00,,CLR,0.00,VWS V14.01,2013-05-23 04:27:00,
2013-05-23 00:32:00,70.7,61.2,29.88,SW,225,0.0,4.0,72,0.00,,CLR,0.00,VWS V14.01,2013-05-23 04:32:00,
2013-05-23 00:37:00,70.3,59.7,29.88,WNW,292,3.1,3.1,69,0.00,,CLR,0.00,VWS V14.01,2013-05-23 04:37:00,
2013-05-23 00:42:00,70.3,59.7,29.88,WSW,248,0.0,0.0,69,0.00,,CLR,0.00,VWS V14.01,2013-05-23 04:42:00,
2013-05-23 00:47:00,70.2,59.5,29.88,WSW,248,0.0,2.7,69,0.00,,CLR,0.00,VWS V14.01,2013-05-23 04:47:00,
2013-05-23 00:52:00,70.0,59.3,29.85,SW,225,0.0,0.0,69,0.00,,OVC080,0.00,VWS V14.01,2013-05-23 04:52:00,
2013-05-23 00:57:00,69.6,59.4,29.85,SW,225,0.0,0.0,70,0.00,,OVC080,0.00,VWS V14.01,2013-05-23 04:57:00,
2013-05-23 01:02:00,68.9,59.1,29.85,WSW,248,0.0,0.0,71,0.00,,OVC080,0.00,VWS V14.01,2013-05-23 05:02:00,
2013-05-23 01:07:00,68.5,58.8,29.85,SSW,202,0.0,0.0,71,0.00,,OVC080,0.00,VWS V14.01,2013-05-23 05:07:00,
2013-05-23 01:12:00,68.0,58.7,29.85,SSW,202,0.0,0.0,72,0.00,,OVC080,0.00,VWS V14.01,2013-05-23 05:12:00,
2013-05-23 01:17:00,67.5,58.5,29.85,East,90,0.0,0.0,73,0.00,,OVC080,0.00,VWS V14.01,2013-05-23 05:17:00,
2013-05-23 01:22:00,67.1,58.5,29.85,ENE,68,0.0,0.0,74,0.00,,OVC080,0.00,VWS V14.01,2013-05-23 05:22:00,
2013-05-23 01:27:00,66.7,58.6,29.85,East,90,0.0,0.0,75,0.00,,OVC080,0.00,VWS V14.01,2013-05-23 05:27:00,
2013-05-23 01:32:00,66.4,58.6,29.85,East,90,0.0,0.0,76,0.00,,OVC080,0.00,VWS V14.01,2013-05-23 05:32:00,
2013-05-23 01:38:00,66.0,58.6,29.85,East,90,0.0,0.0,77,0.00,,OVC080,0.00,VWS V14.01,2013-05-23 05:38:00,
2013-05-23 01:43:00,65.8,58.8,29.85,East,90,0.0,0.0,78,0.00,,OVC080,0.00,VWS V14.01,2013-05-23 05:43:00,
2013-05-23 01:48:00,65.5,58.8,29.85,East,90,0.0,0.0,79,0.00,,OVC080,0.00,VWS V14.01,2013-05-23 05:48:00,
2013-05-23 01:53:00,65.3,59.0,29.82,East,90,0.0,0.0,80,0.00,,FEW090,0.00,VWS V14.01,2013-05-23 05:53:00,
2013-05-23 01:58:00,64.9,58.6,29.82,East,90,0.0,0.0,80,0.00,,FEW090,0.00,VWS V14.01,2013-05-23 05:58:00,
2013-05-23 02:03:00,64.8,58.8,29.82,East,90,0.0,0.0,81,0.00,,FEW090,0.00,VWS V14.01,2013-05-23 06:03:00,
2013-05-23 02:08:00,64.8,58.8,29.82,East,90,0.0,0.0,81,0.00,,FEW090,0.00,VWS V14.01,2013-05-23 06:08:00,
2013-05-23 02:13:00,64.4,58.8,29.82,East,90,0.0,0.0,82,0.00,,FEW090,0.00,VWS V14.01,2013-05-23 06:13:00,
2013-05-23 02:18:00,64.4,58.8,29.82,East,90,0.0,0.0,82,0.00,,FEW090,0.00,VWS V14.01,2013-05-23 06:18:00,
2013-05-23 02:23:00,64.2,59.3,29.82,East,90,0.0,0.0,84,0.00,,FEW090,0.00,VWS V14.01,2013-05-23 06:23:00,
2013-05-23 02:28:00,64.2,59.3,29.82,East,90,0.0,0.0,84,0.00,,FEW090,0.00,VWS V14.01,2013-05-23 06:28:00,
2013-05-23 02:33:00,64.2,59.6,29.82,NNE,22,0.0,0.0,85,0.00,,FEW090,0.00,VWS V14.01,2013-05-23 06:33:00,
2013-05-23 02:38:00,64.0,59.5,29.82,North,0,0.0,0.0,85,0.00,,FEW090,0.00,VWS V14.01,2013-05-23 06:38:00,
2013-05-23 02:43:00,64.0,59.5,29.82,NNE,22,0.0,0.0,85,0.00,,FEW090,0.00,VWS V14.01,2013-05-23 06:43:00,
2013-05-23 02:48:00,64.0,59.5,29.82,ENE,68,0.0,0.0,85,0.00,,FEW090,0.00,VWS V14.01,2013-05-23 06:48:00,
2013-05-23 02:53:00,63.9,59.6,29.79,NE,45,0.0,0.0,86,0.00,,CLR,0.00,VWS V14.01,2013-05-23 06:53:00,
2013-05-23 02:58:00,63.7,59.7,29.79,North,0,0.0,0.0,87,0.00,,CLR,0.00,VWS V14.01,2013-05-23 06:58:00,
2013-05-23 03:03:00,63.5,59.6,29.79,North,0,0.0,0.0,87,0.00,,CLR,0.00,VWS V14.01,2013-05-23 07:03:00,
2013-05-23 03:08:00,63.5,59.9,29.82,ENE,68,0.0,0.0,88,0.00,,CLR,0.00,VWS V14.01,2013-05-23 07:08:00,
2013-05-23 03:13:00,63.5,59.9,29.82,ENE,68,0.0,0.0,88,0.00,,CLR,0.00,VWS V14.01,2013-05-23 07:13:00,
2013-05-23 03:18:00,63.3,59.7,29.82,ENE,68,0.0,0.0,88,0.00,,CLR,0.00,VWS V14.01,2013-05-23 07:18:00,
2013-05-23 03:23:00,63.3,59.7,29.82,NE,45,0.0,0.0,88,0.00,,CLR,0.00,VWS V14.01,2013-05-23 07:23:00,
2013-05-23 03:28:00,63.1,59.8,29.82,NE,45,0.0,0.0,89,0.00,,CLR,0.00,VWS V14.01,2013-05-23 07:28:00,
2013-05-23 03:33:00,63.0,59.7,29.82,NE,45,0.0,0.0,89,0.00,,CLR,0.00,VWS V14.01,2013-05-23 07:33:00,
2013-05-23 03:38:00,63.0,59.7,29.82,NNE,22,0.0,0.0,89,0.00,,CLR,0.00,VWS V14.01,2013-05-23 07:38:00,
2013-05-23 03:43:00,62.8,59.5,29.82,North,0,0.0,0.0,89,0.00,,CLR,0.00,VWS V14.01,2013-05-23 07:43:00,
2013-05-23 03:48:00,63.0,60.0,29.82,North,0,0.0,0.0,90,0.00,,CLR,0.00,VWS V14.01,2013-05-23 07:48:00,
2013-05-23 03:53:00,63.1,60.2,29.82,North,0,0.0,0.0,90,0.00,,CLR,0.00,VWS V14.01,2013-05-23 07:53:00,
2013-05-23 03:58:00,63.7,61.0,29.82,WSW,248,0.0,0.0,91,0.00,,CLR,0.00,VWS V14.01,2013-05-23 07:58:00,
2013-05-23 04:03:00,64.2,61.8,29.82,SSW,202,0.0,0.0,92,0.00,,CLR,0.00,VWS V14.01,2013-05-23 08:03:00,
2013-05-23 04:08:00,64.8,62.4,29.82,NW,315,0.0,0.0,92,0.00,,CLR,0.00,VWS V14.01,2013-05-23 08:08:00,
2013-05-23 04:13:00,64.9,62.6,29.82,NW,315,0.0,0.0,92,0.00,,CLR,0.00,VWS V14.01,2013-05-23 08:13:00,
2013-05-23 04:18:00,65.3,62.9,29.82,NW,315,0.0,0.0,92,0.00,,CLR,0.00,VWS V14.01,2013-05-23 08:18:00,
2013-05-23 04:23:00,65.5,63.4,29.82,North,0,2.2,4.0,93,0.00,,CLR,0.00,VWS V14.01,2013-05-23 08:23:00,
2013-05-23 04:28:00,65.5,63.4,29.82,North,0,0.0,0.0,93,0.00,,CLR,0.00,VWS V14.01,2013-05-23 08:28:00,
2013-05-23 04:33:00,65.7,63.6,29.82,North,0,0.0,0.0,93,0.00,,CLR,0.00,VWS V14.01,2013-05-23 08:33:00,
2013-05-23 04:38:00,66.0,63.9,29.82,North,0,0.0,0.0,93,0.00,,CLR,0.00,VWS V14.01,2013-05-23 08:38:00,
2013-05-23 04:43:00,66.0,64.2,29.82,NNW,338,0.0,0.0,94,0.00,,CLR,0.00,VWS V14.01,2013-05-23 08:43:00,
2013-05-23 04:48:00,66.0,64.2,29.82,NNW,338,0.0,0.0,94,0.00,,CLR,0.00,VWS V14.01,2013-05-23 08:48:00,
2013-05-23 04:53:00,66.0,64.2,29.82,NNW,338,0.0,0.0,94,0.00,,CLR,0.00,VWS V14.01,2013-05-23 08:53:00,
2013-05-23 04:58:00,66.0,64.2,29.82,NNW,338,0.0,0.0,94,0.00,,CLR,0.00,VWS V14.01,2013-05-23 08:58:00,
2013-05-23 05:03:00,66.0,64.2,29.82,NNW,338,0.0,0.0,94,0.00,,CLR,0.00,VWS V14.01,2013-05-23 09:03:00,
2013-05-23 05:09:00,66.0,64.6,29.82,NNW,338,0.0,0.0,95,0.00,,CLR,0.00,VWS V14.01,2013-05-23 09:09:00,
2013-05-23 05:14:00,65.8,64.4,29.82,NNW,338,0.0,0.0,95,0.00,,CLR,0.00,VWS V14.01,2013-05-23 09:14:00,
2013-05-23 05:19:00,65.8,64.1,29.82,NNW,338,0.0,0.0,94,0.00,,CLR,0.00,VWS V14.01,2013-05-23 09:19:00,
2013-05-23 05:24:00,65.8,64.1,29.82,NNW,338,0.0,0.0,94,0.00,,CLR,0.00,VWS V14.01,2013-05-23 09:24:00,
2013-05-23 05:29:00,65.7,63.9,29.82,NNW,338,0.0,0.0,94,0.00,,CLR,0.00,VWS V14.01,2013-05-23 09:29:00,
2013-05-23 05:34:00,65.5,64.0,29.82,NNW,338,0.0,0.0,95,0.00,,CLR,0.00,VWS V14.01,2013-05-23 09:34:00,
2013-05-23 05:39:00,65.1,63.7,29.85,NNW,338,0.0,0.0,95,0.00,,CLR,0.00,VWS V14.01,2013-05-23 09:39:00,
2013-05-23 05:44:00,64.9,63.5,29.85,West,270,0.0,0.0,95,0.00,,CLR,0.00,VWS V14.01,2013-05-23 09:44:00,
2013-05-23 05:49:00,64.8,63.0,29.85,West,270,0.0,0.0,94,0.00,,CLR,0.00,VWS V14.01,2013-05-23 09:49:00,
2013-05-23 05:54:00,64.8,63.0,29.85,West,270,0.0,0.0,94,0.00,,BKN110,0.00,VWS V14.01,2013-05-23 09:54:00,
2013-05-23 05:59:00,64.8,63.3,29.85,West,270,0.0,0.0,95,0.00,,BKN110,0.00,VWS V14.01,2013-05-23 09:59:00,
2013-05-23 06:04:00,64.8,63.0,29.85,West,270,0.0,0.0,94,0.00,,BKN110,0.00,VWS V14.01,2013-05-23 10:04:00,
2013-05-23 06:09:00,64.8,63.0,29.85,West,270,0.0,0.0,94,0.00,,BKN110,0.00,VWS V14.01,2013-05-23 10:09:00,
2013-05-23 06:14:00,64.9,63.2,29.85,West,270,0.0,0.0,94,0.00,,BKN110,0.00,VWS V14.01,2013-05-23 10:14:00,
2013-05-23 06:20:00,64.9,62.9,29.85,West,270,0.0,0.0,93,0.00,,BKN110,0.00,VWS V14.01,2013-05-23 10:20:00,
2013-05-23 06:25:00,64.9,62.9,29.85,West,270,0.0,0.0,93,0.00,,BKN110,0.00,VWS V14.01,2013-05-23 10:25:00,
2013-05-23 06:30:00,64.9,62.9,29.85,ESE,112,0.0,0.0,93,0.00,,BKN110,0.00,VWS V14.01,2013-05-23 10:30:00,
2013-05-23 06:35:00,64.9,62.9,29.85,ESE,112,0.0,0.0,93,0.00,,BKN110,0.00,VWS V14.01,2013-05-23 10:35:00,
2013-05-23 06:40:00,65.1,63.0,29.85,ENE,68,0.0,0.0,93,0.00,,BKN110,0.00,VWS V14.01,2013-05-23 10:40:00,
2013-05-23 06:45:00,65.1,63.0,29.85,ENE,68,0.0,0.0,93,0.00,,BKN110,0.00,VWS V14.01,2013-05-23 10:45:00,
2013-05-23 06:50:00,65.3,63.2,29.85,ENE,68,0.0,0.0,93,0.00,,BKN110,0.00,VWS V14.01,2013-05-23 10:50:00,
2013-05-23 06:55:00,65.5,63.4,29.88,ENE,68,0.0,0.0,93,0.00,,OVC100,0.00,VWS V14.01,2013-05-23 10:55:00,
2013-05-23 07:00:00,65.5,63.4,29.88,East,90,0.0,0.0,93,0.00,,OVC100,0.00,VWS V14.01,2013-05-23 11:00:00,
2013-05-23 07:05:00,65.7,63.6,29.88,ENE,68,0.0,0.0,93,0.00,,OVC100,0.00,VWS V14.01,2013-05-23 11:05:00,
2013-05-23 07:10:00,65.8,63.8,29.88,ENE,68,0.0,0.0,93,0.00,,OVC100,0.00,VWS V14.01,2013-05-23 11:10:00,
2013-05-23 07:15:00,66.2,64.1,29.88,ENE,68,0.0,0.0,93,0.00,,OVC100,0.00,VWS V14.01,2013-05-23 11:15:00,
2013-05-23 07:20:00,66.4,64.3,29.88,ENE,68,0.0,0.0,93,0.00,,OVC100,0.00,VWS V14.01,2013-05-23 11:20:00,
2013-05-23 07:25:00,66.6,64.2,29.88,ENE,68,0.0,0.0,92,0.00,,OVC100,0.00,VWS V14.01,2013-05-23 11:25:00,
2013-05-23 07:30:00,66.7,64.3,29.88,ENE,68,0.0,0.0,92,0.00,,OVC100,0.00,VWS V14.01,2013-05-23 11:30:00,
2013-05-23 07:35:00,66.9,64.5,29.88,ENE,68,0.0,0.0,92,0.00,,OVC100,0.00,VWS V14.01,2013-05-23 11:35:00,
2013-05-23 07:40:00,67.1,64.7,29.88,East,90,0.0,0.0,92,0.00,,OVC100,0.00,VWS V14.01,2013-05-23 11:40:00,
2013-05-23 07:45:00,67.3,64.9,29.88,East,90,0.0,0.0,92,0.00,,OVC100,0.00,VWS V14.01,2013-05-23 11:45:00,
2013-05-23 07:51:00,67.6,65.2,29.88,ESE,112,0.0,0.0,92,0.00,,OVC110,0.00,VWS V14.01,2013-05-23 11:51:00,
2013-05-23 07:56:00,67.8,65.4,29.91,NNE,22,0.0,0.0,92,0.00,,OVC110,0.00,VWS V14.01,2013-05-23 11:56:00,
2013-05-23 08:01:00,68.0,65.3,29.91,NW,315,0.0,0.0,91,0.00,,OVC110,0.00,VWS V14.01,2013-05-23 12:01:00,
2013-05-23 08:06:00,68.7,66.0,29.91,North,0,0.0,0.0,91,0.00,,OVC110,0.00,VWS V14.01,2013-05-23 12:06:00,
2013-05-23 08:11:00,69.3,66.5,29.88,East,90,0.0,0.0,91,0.00,,OVC110,0.00,VWS V14.01,2013-05-23 12:11:00,
2013-05-23 08:16:00,69.8,66.7,29.88,NE,45,0.0,0.0,90,0.00,,OVC110,0.00,VWS V14.01,2013-05-23 12:16:00,
2013-05-23 08:21:00,70.5,67.4,29.88,West,270,0.0,0.0,90,0.00,,OVC110,0.00,VWS V14.01,2013-05-23 12:21:00,
2013-05-23 08:26:00,71.2,67.8,29.91,West,270,0.0,0.0,89,0.00,,OVC110,0.00,VWS V14.01,2013-05-23 12:26:00,
2013-05-23 08:31:00,71.8,67.7,29.91,North,0,0.0,0.0,87,0.00,,OVC110,0.00,VWS V14.01,2013-05-23 12:31:00,
2013-05-23 08:36:00,72.1,67.7,29.91,NW,315,0.0,0.0,86,0.00,,OVC110,0.00,VWS V14.01,2013-05-23 12:36:00,
2013-05-23 08:41:00,72.1,67.0,29.91,NW,315,0.0,0.0,84,0.00,,OVC100,0.00,VWS V14.01,2013-05-23 12:41:00,
2013-05-23 08:46:00,71.8,66.7,29.91,SW,225,0.0,0.0,84,0.00,,OVC100,0.00,VWS V14.01,2013-05-23 12:46:00,
2013-05-23 08:51:00,72.1,67.0,29.91,WSW,248,0.0,0.0,84,0.00,,OVC100,0.00,VWS V14.01,2013-05-23 12:51:00,
2013-05-23 08:56:00,72.0,66.9,29.88,South,180,0.0,0.0,84,0.00,,OVC100,0.00,VWS V14.01,2013-05-23 12:56:00,
2013-05-23 09:02:00,72.0,66.9,29.88,SSW,202,0.0,0.0,84,0.00,,OVC100,0.00,VWS V14.01,2013-05-23 13:02:00,
2013-05-23 09:07:00,72.0,66.9,29.88,NE,45,0.0,3.1,84,0.00,,OVC100,0.00,VWS V14.01,2013-05-23 13:07:00,
2013-05-23 09:12:00,72.1,66.7,29.91,WSW,248,0.0,0.0,83,0.00,,OVC100,0.00,VWS V14.01,2013-05-23 13:12:00,
2013-05-23 09:17:00,72.0,66.5,29.91,SW,225,0.0,0.0,83,0.00,,OVC100,0.00,VWS V14.01,2013-05-23 13:17:00,
2013-05-23 09:22:00,71.8,66.3,29.91,SW,225,0.0,0.0,83,0.00,,OVC100,0.00,VWS V14.01,2013-05-23 13:22:00,
2013-05-23 09:27:00,71.8,66.3,29.91,WSW,248,0.0,0.0,83,0.00,,OVC100,0.00,VWS V14.01,2013-05-23 13:27:00,
2013-05-23 09:32:00,71.6,66.2,29.91,WSW,248,0.0,0.0,83,0.00,,OVC100,0.00,VWS V14.01,2013-05-23 13:32:00,
2013-05-23 09:37:00,71.6,66.5,29.91,SW,225,0.0,0.0,84,0.00,,OVC100,0.00,VWS V14.01,2013-05-23 13:37:00,
2013-05-23 09:42:00,71.4,66.7,29.91,SW,225,0.0,0.0,85,0.00,,OVC100,0.00,VWS V14.01,2013-05-23 13:42:00,
2013-05-23 09:47:00,71.6,66.9,29.91,WSW,248,0.0,0.0,85,0.00,,OVC100,0.00,VWS V14.01,2013-05-23 13:47:00,
2013-05-23 09:52:00,71.6,66.9,29.91,WSW,248,0.0,0.0,85,0.00,,OVC090,0.00,VWS V14.01,2013-05-23 13:52:00,
2013-05-23 09:57:00,71.4,67.3,29.91,WNW,292,0.0,0.0,87,0.00,,OVC090,0.00,VWS V14.01,2013-05-23 13:57:00,
2013-05-23 10:02:00,71.4,67.3,29.91,WNW,292,0.0,0.0,87,0.00,,OVC090,0.00,VWS V14.01,2013-05-23 14:02:00,
2013-05-23 10:07:00,71.6,67.5,29.91,East,90,0.0,0.0,87,0.00,,OVC090,0.00,VWS V14.01,2013-05-23 14:07:00,
2013-05-23 10:12:00,71.8,67.7,29.91,NNE,22,0.0,0.0,87,0.00,,OVC090,0.00,VWS V14.01,2013-05-23 14:12:00,
2013-05-23 10:17:00,71.8,67.7,29.91,NE,45,0.0,0.0,87,0.00,,OVC090,0.00,VWS V14.01,2013-05-23 14:17:00,
2013-05-23 10:22:00,71.8,68.0,29.91,ENE,68,0.0,0.0,88,0.00,,OVC090,0.00,VWS V14.01,2013-05-23 14:22:00,
2013-05-23 10:27:00,71.8,67.7,29.91,ENE,68,0.0,0.0,87,0.00,,OVC090,0.00,VWS V14.01,2013-05-23 14:27:00,
2013-05-23 10:32:00,71.8,68.0,29.91,NE,45,0.0,0.0,88,0.00,,OVC090,0.00,VWS V14.01,2013-05-23 14:32:00,
2013-05-23 10:37:00,72.0,68.2,29.88,NNE,22,0.0,0.0,88,0.00,,OVC090,0.00,VWS V14.01,2013-05-23 14:37:00,
2013-05-23 10:42:00,72.1,68.4,29.88,NW,315,0.0,0.0,88,0.00,,OVC090,0.00,VWS V14.01,2013-05-23 14:42:00,
2013-05-23 10:47:00,73.0,69.3,29.88,West,270,0.0,0.0,88,0.00,,OVC090,0.00,VWS V14.01,2013-05-23 14:47:00,
2013-05-23 10:52:00,73.6,69.5,29.91,North,0,0.0,0.0,87,0.00,,OVC110,0.00,VWS V14.01,2013-05-23 14:52:00,
2013-05-23 10:57:00,74.3,70.5,29.91,NNW,338,0.0,0.0,88,0.00,,OVC110,0.00,VWS V14.01,2013-05-23 14:57:00,
2013-05-23 11:02:00,74.8,70.4,29.91,SW,225,0.0,0.0,86,0.00,,OVC110,0.00,VWS V14.01,2013-05-23 15:02:00,
2013-05-23 11:07:00,74.1,68.6,29.91,West,270,0.0,0.0,83,0.00,,OVC110,0.00,VWS V14.01,2013-05-23 15:07:00,
2013-05-23 11:12:00,73.4,67.6,29.91,SSE,158,0.0,3.1,82,0.00,,OVC110,0.00,VWS V14.01,2013-05-23 15:12:00,
2013-05-23 11:18:00,73.0,67.6,29.91,North,0,2.2,2.2,83,0.00,,OVC110,0.00,VWS V14.01,2013-05-23 15:18:00,
2013-05-23 11:23:00,72.9,67.4,29.91,WSW,248,0.0,0.0,83,0.00,,OVC110,0.00,VWS V14.01,2013-05-23 15:23:00,
2013-05-23 11:28:00,72.7,67.6,29.91,NW,315,0.0,2.2,84,0.00,,OVC110,0.00,VWS V14.01,2013-05-23 15:28:00,
2013-05-23 11:33:00,72.5,67.4,29.91,NW,315,2.7,2.7,84,0.00,,OVC110,0.00,VWS V14.01,2013-05-23 15:33:00,
2013-05-23 11:38:00,72.5,67.4,29.91,SW,225,0.0,0.0,84,0.00,,OVC110,0.00,VWS V14.01,2013-05-23 15:38:00,
2013-05-23 11:43:00,73.0,68.3,29.91,West,270,0.0,0.0,85,0.00,,OVC110,0.00,VWS V14.01,2013-05-23 15:43:00,
2013-05-23 11:48:00,74.1,69.0,29.91,West,270,0.0,4.0,84,0.00,,OVC110,0.00,VWS V14.01,2013-05-23 15:48:00,
2013-05-23 11:53:00,75.2,69.3,29.88,NW,315,0.0,2.7,82,0.00,,-RA,0.00,VWS V14.01,2013-05-23 15:53:00,
2013-05-23 11:58:00,75.0,68.8,29.88,SE,135,0.0,0.0,81,0.00,,-RA,0.00,VWS V14.01,2013-05-23 15:58:00,
2013-05-23 12:03:00,74.7,68.4,29.88,ESE,112,0.0,0.0,81,0.00,,-RA,0.00,VWS V14.01,2013-05-23 16:03:00,
2013-05-23 12:08:00,74.3,68.1,29.91,NE,45,0.0,0.0,81,0.00,,-RA,0.00,VWS V14.01,2013-05-23 16:08:00,
2013-05-23 12:13:00,73.9,68.1,29.91,North,0,3.1,3.1,82,0.00,,-RA,0.00,VWS V14.01,2013-05-23 16:13:00,
2013-05-23 12:18:00,73.8,67.9,29.91,West,270,0.0,0.0,82,0.00,,-RA,0.00,VWS V14.01,2013-05-23 16:18:00,
2013-05-23 12:23:00,73.2,67.8,29.91,North,0,0.0,0.0,83,0.00,,-RA,0.00,VWS V14.01,2013-05-23 16:23:00,
2013-05-23 12:28:00,72.5,67.4,29.91,North,0,0.0,0.0,84,0.00,,-RA,0.00,VWS V14.01,2013-05-23 16:28:00,
2013-05-23 12:33:00,72.1,67.0,29.91,SW,225,0.0,0.0,84,0.00,,-RA,0.00,VWS V14.01,2013-05-23 16:33:00,
2013-05-23 12:38:00,71.6,66.9,29.91,West,270,0.0,0.0,85,0.00,,-RA,0.00,VWS V14.01,2013-05-23 16:38:00,
2013-05-23 12:43:00,71.6,67.2,29.91,North,0,0.0,0.0,86,0.00,,-RA,0.00,VWS V14.01,2013-05-23 16:43:00,
2013-05-23 12:48:00,71.4,67.3,29.91,North,0,0.0,0.0,87,0.00,,-RA,0.00,VWS V14.01,2013-05-23 16:48:00,
2013-05-23 12:53:00,71.1,67.3,29.91,NNW,338,0.0,0.0,88,0.04,,-RA,0.04,VWS V14.01,2013-05-23 16:53:00,
2013-05-23 12:59:00,70.7,67.3,29.91,ESE,112,0.0,1.8,89,0.12,,-RA,0.12,VWS V14.01,2013-05-23 16:59:00,
2013-05-23 13:04:00,70.2,67.1,29.91,SW,225,1.8,2.2,90,0.16,,-RA,0.16,VWS V14.01,2013-05-23 17:04:00,
2013-05-23 13:08:00,69.8,67.1,29.91,WNW,292,0.0,2.2,91,0.20,,-RA,0.20,VWS V14.01,2013-05-23 17:08:00,
2013-05-23 13:14:00,69.4,67.0,29.91,WSW,248,0.0,1.8,92,0.25,,-RA,0.25,VWS V14.01,2013-05-23 17:14:00,
2013-05-23 13:19:00,69.1,67.0,29.91,WSW,248,0.0,0.0,93,0.33,,-RA,0.33,VWS V14.01,2013-05-23 17:19:00,
2013-05-23 13:24:00,68.9,67.1,29.91,SE,135,3.1,5.8,94,0.33,,-RA,0.33,VWS V14.01,2013-05-23 17:24:00,
2013-05-23 13:29:00,68.4,66.6,29.91,East,90,3.1,4.9,94,0.37,,-RA,0.37,VWS V14.01,2013-05-23 17:29:00,
2013-05-23 13:34:00,67.8,66.0,29.91,North,0,4.5,4.5,94,0.37,,-RA,0.37,VWS V14.01,2013-05-23 17:34:00,
2013-05-23 13:39:00,67.6,65.9,29.91,North,0,0.0,0.0,94,0.37,,-RA,0.37,VWS V14.01,2013-05-23 17:39:00,
2013-05-23 13:44:00,67.5,65.7,29.91,West,270,0.0,0.0,94,0.37,,RA,0.37,VWS V14.01,2013-05-23 17:44:00,
2013-05-23 13:49:00,67.5,66.0,29.91,NNE,22,0.0,0.0,95,0.41,,RA,0.41,VWS V14.01,2013-05-23 17:49:00,
2013-05-23 13:54:00,67.1,65.6,29.91,NNW,338,0.0,0.0,95,0.37,,-RA,0.41,VWS V14.01,2013-05-23 17:54:00,
2013-05-23 13:59:00,67.1,65.6,29.91,ENE,68,0.0,0.0,95,0.29,,-RA,0.41,VWS V14.01,2013-05-23 17:59:00,
2013-05-23 14:04:00,66.9,65.4,29.91,East,90,0.0,2.2,95,0.29,,-RA,0.45,VWS V14.01,2013-05-23 18:04:00,
2013-05-23 14:09:00,66.9,65.4,29.91,SW,225,4.5,4.5,95,0.29,,-RA,0.45,VWS V14.01,2013-05-23 18:09:00,
2013-05-23 14:14:00,66.9,65.4,29.91,North,0,0.0,3.1,95,0.20,,-RA,0.45,VWS V14.01,2013-05-23 18:14:00,
2013-05-23 14:19:00,67.1,65.9,29.91,NE,45,0.0,0.0,96,0.12,,-RA,0.45,VWS V14.01,2013-05-23 18:19:00,
2013-05-23 14:24:00,67.5,66.3,29.88,North,0,0.0,0.0,96,0.12,,-RA,0.45,VWS V14.01,2013-05-23 18:24:00,
2013-05-23 14:29:00,68.0,66.8,29.88,NW,315,0.0,0.0,96,0.08,,-RA,0.45,VWS V14.01,2013-05-23 18:29:00,
2013-05-23 14:34:00,68.7,67.8,29.88,East,90,1.8,2.7,97,0.08,,-RA,0.45,VWS V14.01,2013-05-23 18:34:00,
2013-05-23 14:39:00,69.4,68.6,29.88,East,90,0.0,4.0,97,0.08,,-RA,0.45,VWS V14.01,2013-05-23 18:39:00,
2013-05-23 14:44:00,69.6,68.7,29.88,North,0,0.0,4.0,97,0.08,,-RA,0.45,VWS V14.01,2013-05-23 18:44:00,
2013-05-23 14:49:00,69.6,68.4,29.88,WSW,248,0.0,0.0,96,0.04,,-RA,0.45,VWS V14.01,2013-05-23 18:49:00,
2013-05-23 14:54:00,69.6,68.1,29.88,North,0,0.0,2.7,95,0.04,,-RA,0.45,VWS V14.01,2013-05-23 18:54:00,
2013-05-23 14:59:00,69.4,67.6,29.88,North,0,0.0,0.0,94,0.04,,-RA,0.45,VWS V14.01,2013-05-23 18:59:00,
2013-05-23 15:04:00,70.2,68.4,29.88,NNW,338,0.0,0.0,94,0.04,,-RA,0.45,VWS V14.01,2013-05-23 19:04:00,
2013-05-23 15:09:00,70.5,68.4,29.85,North,0,0.0,0.0,93,0.00,,-RA,0.45,VWS V14.01,2013-05-23 19:09:00,
2013-05-23 15:14:00,71.4,69.3,29.85,NNW,338,0.0,0.0,93,0.00,,-RA,0.45,VWS V14.01,2013-05-23 19:14:00,
2013-05-23 15:19:00,72.7,70.5,29.85,NW,315,0.0,0.0,93,0.00,,-RA,0.45,VWS V14.01,2013-05-23 19:19:00,
2013-05-23 15:24:00,72.9,70.1,29.85,West,270,0.0,0.0,91,0.00,,-RA,0.45,VWS V14.01,2013-05-23 19:24:00,
2013-05-23 15:29:00,72.9,70.1,29.85,West,270,4.5,6.3,91,0.00,,-RA,0.45,VWS V14.01,2013-05-23 19:29:00,
2013-05-23 15:34:00,72.3,69.2,29.85,West,270,0.0,0.0,90,0.00,,-RA,0.45,VWS V14.01,2013-05-23 19:34:00,
2013-05-23 15:39:00,71.6,68.2,29.85,SSE,158,0.0,1.8,89,0.00,,-RA,0.45,VWS V14.01,2013-05-23 19:39:00,
2013-05-23 15:44:00,71.4,68.3,29.85,NE,45,0.0,0.0,90,0.00,,-RA,0.45,VWS V14.01,2013-05-23 19:44:00,
2013-05-23 15:50:00,71.6,68.5,29.85,North,0,0.0,0.0,90,0.00,,-RA,0.45,VWS V14.01,2013-05-23 19:50:00,
2013-05-23 15:55:00,71.8,68.7,29.85,West,270,0.0,0.0,90,0.00,,OVC110,0.45,VWS V14.01,2013-05-23 19:55:00,
2013-05-23 16:00:00,72.0,68.9,29.85,East,90,0.0,0.0,90,0.00,,OVC110,0.45,VWS V14.01,2013-05-23 20:00:00,
2013-05-23 16:05:00,71.8,68.7,29.85,East,90,0.0,0.0,90,0.00,,OVC110,0.45,VWS V14.01,2013-05-23 20:05:00,
2013-05-23 16:10:00,71.1,68.0,29.82,South,180,0.0,0.0,90,0.00,,OVC110,0.45,VWS V14.01,2013-05-23 20:10:00,
2013-05-23 16:15:00,70.3,67.6,29.82,SSW,202,0.0,0.0,91,0.05,,OVC110,0.50,VWS V14.01,2013-05-23 20:15:00,
2013-05-23 16:20:00,70.0,67.6,29.82,SSE,158,8.1,8.1,92,0.05,,OVC110,0.50,VWS V14.01,2013-05-23 20:20:00,
2013-05-23 16:25:00,69.4,67.3,29.85,WNW,292,2.7,2.7,93,0.09,,OVC110,0.54,VWS V14.01,2013-05-23 20:25:00,
2013-05-23 16:30:00,69.3,66.8,29.85,SW,225,0.0,0.0,92,0.09,,OVC110,0.54,VWS V14.01,2013-05-23 20:30:00,
2013-05-23 16:35:00,69.1,67.0,29.85,SW,225,0.0,0.0,93,0.09,,OVC110,0.54,VWS V14.01,2013-05-23 20:35:00,
2013-05-23 16:40:00,68.7,66.6,29.85,SW,225,1.8,4.5,93,0.09,,OVC110,0.54,VWS V14.01,2013-05-23 20:40:00,
2013-05-23 16:45:00,68.5,66.4,29.85,North,0,0.0,1.8,93,0.09,,OVC110,0.54,VWS V14.01,2013-05-23 20:45:00,
2013-05-23 16:50:00,68.4,66.3,29.85,SSE,158,5.4,5.4,93,0.09,,OVC110,0.54,VWS V14.01,2013-05-23 20:50:00,
2013-05-23 16:55:00,68.0,65.9,29.85,SW,225,0.0,0.0,93,0.09,,-RA,0.54,VWS V14.01,2013-05-23 20:55:00,
2013-05-23 17:00:00,67.6,65.6,29.85,SSW,202,5.4,5.4,93,0.09,,-RA,0.54,VWS V14.01,2013-05-23 21:00:00,
2013-05-23 17:05:00,67.6,65.9,29.85,NW,315,0.0,0.0,94,0.09,,-RA,0.54,VWS V14.01,2013-05-23 21:05:00,
2013-05-23 17:10:00,67.6,65.9,29.85,SE,135,1.8,1.8,94,0.09,,-RA,0.54,VWS V14.01,2013-05-23 21:10:00,
2013-05-23 17:15:00,67.5,65.7,29.85,East,90,0.0,0.0,94,0.04,,-RA,0.54,VWS V14.01,2013-05-23 21:15:00,
2013-05-23 17:20:00,67.6,66.2,29.85,ENE,68,0.0,0.0,95,0.04,,-RA,0.54,VWS V14.01,2013-05-23 21:20:00,
2013-05-23 17:25:00,67.8,66.3,29.88,East,90,5.4,5.4,95,0.00,,-RA,0.54,VWS V14.01,2013-05-23 21:25:00,
2013-05-23 17:30:00,68.0,66.2,29.88,North,0,1.8,2.2,94,0.00,,-RA,0.54,VWS V14.01,2013-05-23 21:30:00,
2013-05-23 17:35:00,68.4,66.9,29.88,East,90,0.0,0.0,95,0.00,,-RA,0.54,VWS V14.01,2013-05-23 21:35:00,
2013-05-23 17:40:00,68.5,67.1,29.85,SE,135,3.1,3.1,95,0.00,,-RA,0.54,VWS V14.01,2013-05-23 21:40:00,
2013-05-23 17:45:00,68.5,66.8,29.85,SE,135,2.2,3.1,94,0.00,,-RA,0.54,VWS V14.01,2013-05-23 21:45:00,
2013-05-23 17:50:00,68.4,66.6,29.85,East,90,0.0,0.0,94,0.00,,-RA,0.54,VWS V14.01,2013-05-23 21:50:00,
2013-05-23 17:56:00,68.2,66.4,29.85,NE,45,0.0,4.5,94,0.00,,-RA,0.54,VWS V14.01,2013-05-23 21:56:00,
2013-05-23 18:01:00,67.8,66.0,29.85,North,0,2.7,4.5,94,0.00,,-RA,0.54,VWS V14.01,2013-05-23 22:01:00,
2013-05-23 18:06:00,67.6,65.9,29.85,ESE,112,5.8,5.8,94,0.00,,-RA,0.54,VWS V14.01,2013-05-23 22:06:00,
2013-05-23 18:11:00,67.5,65.7,29.85,East,90,0.0,0.0,94,0.00,,-RA,0.54,VWS V14.01,2013-05-23 22:11:00,
2013-05-23 18:16:00,67.3,65.5,29.85,East,90,0.0,2.2,94,0.00,,-RA,0.54,VWS V14.01,2013-05-23 22:16:00,
2013-05-23 18:21:00,67.1,65.6,29.85,ENE,68,0.0,0.0,95,0.00,,-RA,0.54,VWS V14.01,2013-05-23 22:21:00,
2013-05-23 18:26:00,67.1,65.6,29.85,North,0,0.0,4.0,95,0.04,,-RA,0.58,VWS V14.01,2013-05-23 22:26:00,
2013-05-23 18:31:00,66.9,65.4,29.85,NE,45,1.8,3.1,95,0.04,,-RA,0.58,VWS V14.01,2013-05-23 22:31:00,
2013-05-23 18:36:00,66.9,65.4,29.85,NE,45,0.0,0.0,95,0.04,,-RA,0.58,VWS V14.01,2013-05-23 22:36:00,
2013-05-23 18:41:00,66.7,65.6,29.82,East,90,3.1,3.1,96,0.04,,-RA,0.58,VWS V14.01,2013-05-23 22:41:00,
2013-05-23 18:46:00,66.6,65.4,29.82,ESE,112,0.0,0.0,96,0.04,,-RA,0.58,VWS V14.01,2013-05-23 22:46:00,
2013-05-23 18:51:00,66.6,65.4,29.82,NE,45,0.0,0.0,96,0.04,,BKN110,0.58,VWS V14.01,2013-05-23 22:51:00,
2013-05-23 18:56:00,66.6,65.4,29.82,NE,45,0.0,0.0,96,0.04,,BKN110,0.58,VWS V14.01,2013-05-23 22:56:00,
2013-05-23 19:01:00,66.6,65.4,29.82,NNE,22,0.0,0.0,96,0.04,,-RA,0.58,VWS V14.01,2013-05-23 23:01:00,
2013-05-23 19:06:00,66.6,65.7,29.82,NE,45,0.0,0.0,97,0.04,,-RA,0.58,VWS V14.01,2013-05-23 23:06:00,
2013-05-23 19:11:00,66.6,65.7,29.82,NE,45,0.0,1.8,97,0.04,,BKN110,0.58,VWS V14.01,2013-05-23 23:11:00,
2013-05-23 19:16:00,66.6,65.7,29.82,NE,45,0.0,0.0,97,0.04,,BKN110,0.58,VWS V14.01,2013-05-23 23:16:00,
2013-05-23 19:21:00,66.6,65.7,29.82,ENE,68,0.0,0.0,97,0.04,,BKN110,0.58,VWS V14.01,2013-05-23 23:21:00,
2013-05-23 19:27:00,66.6,65.7,29.79,NE,45,0.0,0.0,97,0.00,,BKN110,0.58,VWS V14.01,2013-05-23 23:27:00,
2013-05-23 19:32:00,66.4,65.5,29.79,NE,45,0.0,0.0,97,0.00,,BKN110,0.58,VWS V14.01,2013-05-23 23:32:00,
2013-05-23 19:37:00,66.4,65.5,29.82,NE,45,0.0,0.0,97,0.00,,BKN110,0.58,VWS V14.01,2013-05-23 23:37:00,
2013-05-23 19:42:00,66.4,65.5,29.82,NE,45,0.0,0.0,97,0.00,,BKN110,0.58,VWS V14.01,2013-05-23 23:42:00,
2013-05-23 19:47:00,66.4,65.5,29.82,East,90,0.0,0.0,97,0.00,,BKN110,0.58,VWS V14.01,2013-05-23 23:47:00,
2013-05-23 19:52:00,66.4,65.5,29.79,NNE,22,0.0,0.0,97,0.00,,BKN110,0.58,VWS V14.01,2013-05-23 23:52:00,
2013-05-23 19:57:00,66.4,65.8,29.79,NE,45,0.0,0.0,98,0.00,,BKN110,0.58,VWS V14.01,2013-05-23 23:57:00,
2013-05-23 20:02:00,66.4,65.8,29.79,NE,45,0.0,0.0,98,0.00,,OVC110,0.58,VWS V14.01,2013-05-24 00:02:00,
2013-05-23 20:07:00,66.2,65.6,29.79,NNE,22,0.0,0.0,98,0.00,,OVC110,0.58,VWS V14.01,2013-05-24 00:07:00,
2013-05-23 20:12:00,66.2,65.6,29.79,NNE,22,0.0,0.0,98,0.00,,OVC110,0.58,VWS V14.01,2013-05-24 00:12:00,
2013-05-23 20:17:00,66.2,65.6,29.79,East,90,0.0,0.0,98,0.00,,OVC110,0.58,VWS V14.01,2013-05-24 00:17:00,
2013-05-23 20:22:00,66.2,65.6,29.79,NE,45,0.0,0.0,98,0.00,,BKN100,0.58,VWS V14.01,2013-05-24 00:22:00,
2013-05-23 20:27:00,66.2,65.6,29.79,North,0,0.0,0.0,98,0.00,,BKN100,0.58,VWS V14.01,2013-05-24 00:27:00,
2013-05-23 20:32:00,66.2,65.6,29.79,ENE,68,0.0,0.0,98,0.00,,BKN100,0.58,VWS V14.01,2013-05-24 00:32:00,
2013-05-23 20:37:00,66.4,65.8,29.82,East,90,0.0,0.0,98,0.00,,BKN100,0.58,VWS V14.01,2013-05-24 00:37:00,
2013-05-23 20:42:00,66.4,65.8,29.82,East,90,0.0,0.0,98,0.00,,BKN100,0.58,VWS V14.01,2013-05-24 00:42:00,
2013-05-23 20:47:00,66.4,65.8,29.82,NE,45,0.0,2.2,98,0.00,,BKN100,0.58,VWS V14.01,2013-05-24 00:47:00,
2013-05-23 20:52:00,66.4,65.8,29.82,North,0,0.0,0.0,98,0.00,,BKN100,0.58,VWS V14.01,2013-05-24 00:52:00,
2013-05-23 20:57:00,66.4,65.8,29.82,North,0,0.0,0.0,98,0.00,,BKN100,0.58,VWS V14.01,2013-05-24 00:57:00,
2013-05-23 21:03:00,66.6,66.0,29.82,ESE,112,2.2,2.2,98,0.00,,-RA,0.58,VWS V14.01,2013-05-24 01:03:00,
2013-05-23 21:08:00,66.6,66.0,29.82,North,0,2.2,2.2,98,0.00,,-RA,0.58,VWS V14.01,2013-05-24 01:08:00,
2013-05-23 21:13:00,66.6,66.0,29.82,NW,315,0.0,2.2,98,0.00,,BKN100,0.58,VWS V14.01,2013-05-24 01:13:00,
2013-05-23 21:18:00,66.6,66.0,29.82,SSE,158,1.8,3.1,98,0.00,,BKN100,0.58,VWS V14.01,2013-05-24 01:18:00,
2013-05-23 21:23:00,66.6,66.0,29.79,ENE,68,0.0,0.0,98,0.00,,BKN100,0.58,VWS V14.01,2013-05-24 01:23:00,
2013-05-23 21:28:00,66.6,66.0,29.79,ENE,68,0.0,0.0,98,0.04,,BKN100,0.62,VWS V14.01,2013-05-24 01:28:00,
2013-05-23 21:33:00,66.4,65.8,29.79,North,0,0.0,2.7,98,0.04,,-RA,0.62,VWS V14.01,2013-05-24 01:33:00,
2013-05-23 21:38:00,66.4,65.8,29.79,East,90,2.7,2.7,98,0.04,,-RA,0.62,VWS V14.01,2013-05-24 01:38:00,
2013-05-23 21:43:00,66.4,65.8,29.79,East,90,2.2,2.2,98,0.04,,-RA,0.62,VWS V14.01,2013-05-24 01:43:00,
2013-05-23 21:48:00,66.4,65.8,29.79,ENE,68,0.0,2.2,98,0.04,,-RA,0.62,VWS V14.01,2013-05-24 01:48:00,
2013-05-23 21:53:00,66.4,65.8,29.79,North,0,2.7,7.2,98,0.04,,-RA,0.62,VWS V14.01,2013-05-24 01:53:00,
2013-05-23 21:58:00,66.4,65.8,29.79,SE,135,2.7,4.5,98,0.04,,-RA,0.62,VWS V14.01,2013-05-24 01:58:00,
2013-05-23 22:03:00,66.2,65.6,29.79,ESE,112,3.1,3.1,98,0.04,,RA,0.62,VWS V14.01,2013-05-24 02:03:00,
2013-05-23 22:08:00,66.2,65.6,29.79,ESE,112,6.3,6.3,98,0.04,,RA,0.62,VWS V14.01,2013-05-24 02:08:00,
2013-05-23 22:13:00,66.2,65.6,29.79,NNE,22,2.7,2.7,98,0.04,,RA,0.62,VWS V14.01,2013-05-24 02:13:00,
2013-05-23 22:18:00,66.2,65.6,29.79,ESE,112,3.1,5.4,98,0.04,,RA,0.62,VWS V14.01,2013-05-24 02:18:00,
2013-05-23 22:23:00,66.2,65.6,29.79,NE,45,0.0,0.0,98,0.08,,RA,0.66,VWS V14.01,2013-05-24 02:23:00,
2013-05-23 22:28:00,66.2,65.6,29.79,NNE,22,0.0,2.2,98,0.04,,RA,0.66,VWS V14.01,2013-05-24 02:28:00,
2013-05-23 22:33:00,66.0,65.4,29.79,SE,135,3.1,3.1,98,0.04,,RA,0.66,VWS V14.01,2013-05-24 02:33:00,
2013-05-23 22:38:00,66.0,65.4,29.82,ESE,112,5.8,5.8,98,0.04,,RA,0.66,VWS V14.01,2013-05-24 02:38:00,
2013-05-23 22:43:00,66.0,65.4,29.82,ENE,68,4.9,4.9,98,0.04,,RA,0.66,VWS V14.01,2013-05-24 02:43:00,
2013-05-23 22:48:00,66.0,65.4,29.82,SE,135,6.7,7.6,98,0.04,,RA,0.66,VWS V14.01,2013-05-24 02:48:00,
2013-05-23 22:53:00,65.8,65.3,29.79,SW,225,0.0,0.0,98,0.04,,-RA,0.66,VWS V14.01,2013-05-24 02:53:00,
2013-05-23 22:58:00,65.8,65.3,29.79,ENE,68,2.7,6.3,98,0.08,,-RA,0.70,VWS V14.01,2013-05-24 02:58:00,
2013-05-23 23:03:00,65.8,65.3,29.79,SE,135,2.7,4.9,98,0.08,,-RA,0.70,VWS V14.01,2013-05-24 03:03:00,
2013-05-23 23:08:00,65.7,65.1,29.79,ESE,112,0.0,2.7,98,0.08,,-RA,0.70,VWS V14.01,2013-05-24 03:08:00,
2013-05-23 23:13:00,65.7,65.1,29.79,SE,135,0.0,1.8,98,0.08,,-RA,0.00,VWS V14.01,2013-05-24 03:13:00,
2013-05-23 23:18:00,65.5,64.9,29.79,SE,135,0.0,1.8,98,0.08,,-RA,0.00,VWS V14.01,2013-05-24 03:18:00,
2013-05-23 23:23:00,65.5,64.9,29.76,ESE,112,0.0,0.0,98,0.04,,-RA,0.00,VWS V14.01,2013-05-24 03:23:00,
2013-05-23 23:28:00,65.5,64.9,29.76,NNW,338,0.0,0.0,98,0.04,,-RA,0.00,VWS V14.01,2013-05-24 03:28:00,
2013-05-23 23:33:00,65.3,64.7,29.76,NNE,22,0.0,0.0,98,0.04,,-RA,0.00,VWS V14.01,2013-05-24 03:33:00,
2013-05-23 23:38:00,65.3,64.7,29.76,NW,315,2.2,2.2,98,0.04,,-RA,0.00,VWS V14.01,2013-05-24 03:38:00,
2013-05-23 23:43:00,65.1,64.5,29.76,West,270,0.0,0.0,98,0.04,,-RA,0.00,VWS V14.01,2013-05-24 03:43:00,
2013-05-23 23:48:00,65.1,64.5,29.76,NW,315,0.0,0.0,98,0.04,,-RA,0.00,VWS V14.01,2013-05-24 03:48:00,
2013-05-23 23:53:00,65.1,64.5,29.76,NW,315,0.0,0.0,98,0.04,,,0.00,VWS V14.01,2013-05-24 03:53:00,
2013-05-23 23:58:00,65.1,64.5,29.76,NNW,338,0.0,0.0,98,0.00,,,0.00,VWS V14.01,2013-05-24 03:58:00,